sensor_id;sensor_type;location;lat;lon;timestamp;P1;durP1;ratioP1;P2;durP2;ratioP2
3249;SDS011;1637;42.020;23.992;2023-06-14T00:01:46;6.17;;;4.90;;
3249;SDS011;1637;42.020;23.992;2023-06-14T00:04:13;7.43;;;5.97;;
3249;SDS011;1637;42.020;23.992;2023-06-14T00:06:42;6.10;;;5.17;;
3249;SDS011;1637;42.020;23.992;2023-06-14T00:09:10;10.70;;;5.40;;
3249;SDS011;1637;42.020;23.992;2023-06-14T00:11:39;8.23;;;6.10;;
3249;SDS011;1637;42.020;23.992;2023-06-14T00:14:05;6.27;;;5.67;;
3249;SDS011;1637;42.020;23.992;2023-06-14T00:16:32;6.20;;;5.43;;
3249;SDS011;1637;42.020;23.992;2023-06-14T00:19:00;7.10;;;6.37;;
3249;SDS011;1637;42.020;23.992;2023-06-14T00:21:28;8.00;;;5.80;;
3249;SDS011;1637;42.020;23.992;2023-06-14T00:23:55;11.43;;;5.13;;
3249;SDS011;1637;42.020;23.992;2023-06-14T00:26:22;10.07;;;6.00;;
3249;SDS011;1637;42.020;23.992;2023-06-14T00:28:52;6.30;;;4.90;;
3249;SDS011;1637;42.020;23.992;2023-06-14T00:31:19;7.33;;;5.40;;
3249;SDS011;1637;42.020;23.992;2023-06-14T00:33:45;10.90;;;5.37;;
3249;SDS011;1637;42.020;23.992;2023-06-14T00:36:12;10.93;;;6.10;;
3249;SDS011;1637;42.020;23.992;2023-06-14T00:38:39;9.27;;;6.13;;
3249;SDS011;1637;42.020;23.992;2023-06-14T00:41:06;12.13;;;5.33;;
3249;SDS011;1637;42.020;23.992;2023-06-14T00:43:33;5.80;;;5.10;;
3249;SDS011;1637;42.020;23.992;2023-06-14T00:46:02;8.60;;;5.03;;
3249;SDS011;1637;42.020;23.992;2023-06-14T00:48:28;7.40;;;6.10;;
3249;SDS011;1637;42.020;23.992;2023-06-14T00:50:57;7.40;;;5.97;;
3249;SDS011;1637;42.020;23.992;2023-06-14T00:53:27;5.80;;;5.30;;
3249;SDS011;1637;42.020;23.992;2023-06-14T00:55:54;11.00;;;5.53;;
3249;SDS011;1637;42.020;23.992;2023-06-14T00:58:21;7.10;;;5.10;;
3249;SDS011;1637;42.020;23.992;2023-06-14T01:00:48;6.37;;;5.77;;
3249;SDS011;1637;42.020;23.992;2023-06-14T01:03:17;7.47;;;5.70;;
3249;SDS011;1637;42.020;23.992;2023-06-14T01:05:47;9.17;;;6.47;;
3249;SDS011;1637;42.020;23.992;2023-06-14T01:08:18;7.20;;;6.20;;
3249;SDS011;1637;42.020;23.992;2023-06-14T01:10:56;9.17;;;5.70;;
3249;SDS011;1637;42.020;23.992;2023-06-14T01:13:32;7.10;;;5.67;;
3249;SDS011;1637;42.020;23.992;2023-06-14T01:16:00;10.80;;;6.50;;
3249;SDS011;1637;42.020;23.992;2023-06-14T01:18:29;7.40;;;5.40;;
3249;SDS011;1637;42.020;23.992;2023-06-14T01:20:57;9.53;;;5.93;;
3249;SDS011;1637;42.020;23.992;2023-06-14T01:23:25;12.93;;;6.20;;
3249;SDS011;1637;42.020;23.992;2023-06-14T01:25:57;6.30;;;5.30;;
3249;SDS011;1637;42.020;23.992;2023-06-14T01:28:25;5.87;;;5.27;;
3249;SDS011;1637;42.020;23.992;2023-06-14T01:30:57;6.17;;;5.50;;
3249;SDS011;1637;42.020;23.992;2023-06-14T01:33:29;8.00;;;6.07;;
3249;SDS011;1637;42.020;23.992;2023-06-14T01:35:57;8.90;;;6.20;;
3249;SDS011;1637;42.020;23.992;2023-06-14T01:38:26;9.53;;;6.97;;
3249;SDS011;1637;42.020;23.992;2023-06-14T01:40:54;15.30;;;6.90;;
3249;SDS011;1637;42.020;23.992;2023-06-14T01:43:23;9.67;;;6.00;;
3249;SDS011;1637;42.020;23.992;2023-06-14T01:45:51;7.33;;;6.20;;
3249;SDS011;1637;42.020;23.992;2023-06-14T01:48:20;6.80;;;6.10;;
3249;SDS011;1637;42.020;23.992;2023-06-14T01:50:47;8.73;;;5.80;;
3249;SDS011;1637;42.020;23.992;2023-06-14T01:53:14;12.00;;;5.70;;
3249;SDS011;1637;42.020;23.992;2023-06-14T01:55:42;10.37;;;6.23;;
3249;SDS011;1637;42.020;23.992;2023-06-14T01:58:13;7.90;;;6.00;;
3249;SDS011;1637;42.020;23.992;2023-06-14T02:00:41;7.63;;;6.90;;
3249;SDS011;1637;42.020;23.992;2023-06-14T02:03:08;6.10;;;5.30;;
3249;SDS011;1637;42.020;23.992;2023-06-14T02:05:36;6.90;;;5.47;;
3249;SDS011;1637;42.020;23.992;2023-06-14T02:08:04;10.07;;;5.50;;
3249;SDS011;1637;42.020;23.992;2023-06-14T02:10:31;8.33;;;5.07;;
3249;SDS011;1637;42.020;23.992;2023-06-14T02:12:59;7.60;;;5.60;;
3249;SDS011;1637;42.020;23.992;2023-06-14T02:15:26;7.83;;;5.60;;
3249;SDS011;1637;42.020;23.992;2023-06-14T02:17:59;6.43;;;5.57;;
3249;SDS011;1637;42.020;23.992;2023-06-14T02:20:26;12.30;;;5.93;;
3249;SDS011;1637;42.020;23.992;2023-06-14T02:22:53;10.43;;;7.20;;
3249;SDS011;1637;42.020;23.992;2023-06-14T02:25:20;9.53;;;6.73;;
3249;SDS011;1637;42.020;23.992;2023-06-14T02:27:47;9.97;;;7.13;;
3249;SDS011;1637;42.020;23.992;2023-06-14T02:30:15;9.80;;;7.00;;
3249;SDS011;1637;42.020;23.992;2023-06-14T02:32:42;8.80;;;7.20;;
3249;SDS011;1637;42.020;23.992;2023-06-14T02:35:09;10.13;;;8.30;;
3249;SDS011;1637;42.020;23.992;2023-06-14T02:37:36;7.60;;;6.43;;
3249;SDS011;1637;42.020;23.992;2023-06-14T02:40:03;11.40;;;6.07;;
3249;SDS011;1637;42.020;23.992;2023-06-14T02:42:31;10.33;;;6.90;;
3249;SDS011;1637;42.020;23.992;2023-06-14T02:44:58;9.00;;;6.97;;
3249;SDS011;1637;42.020;23.992;2023-06-14T02:47:27;11.27;;;7.33;;
3249;SDS011;1637;42.020;23.992;2023-06-14T02:49:53;11.00;;;6.10;;
3249;SDS011;1637;42.020;23.992;2023-06-14T02:52:20;17.50;;;13.13;;
3249;SDS011;1637;42.020;23.992;2023-06-14T02:54:47;6.47;;;5.70;;
3249;SDS011;1637;42.020;23.992;2023-06-14T02:57:14;7.23;;;6.20;;
3249;SDS011;1637;42.020;23.992;2023-06-14T02:59:41;7.50;;;6.47;;
3249;SDS011;1637;42.020;23.992;2023-06-14T03:02:08;18.70;;;7.10;;
3249;SDS011;1637;42.020;23.992;2023-06-14T03:04:36;12.60;;;7.17;;
3249;SDS011;1637;42.020;23.992;2023-06-14T03:07:03;9.73;;;7.03;;
3249;SDS011;1637;42.020;23.992;2023-06-14T03:09:34;14.80;;;7.60;;
3249;SDS011;1637;42.020;23.992;2023-06-14T03:12:02;10.10;;;7.13;;
3249;SDS011;1637;42.020;23.992;2023-06-14T03:14:29;8.37;;;6.70;;
3249;SDS011;1637;42.020;23.992;2023-06-14T03:16:56;11.57;;;6.70;;
3249;SDS011;1637;42.020;23.992;2023-06-14T03:19:24;11.93;;;7.20;;
3249;SDS011;1637;42.020;23.992;2023-06-14T03:21:53;11.00;;;8.30;;
3249;SDS011;1637;42.020;23.992;2023-06-14T03:24:22;10.00;;;8.83;;
3249;SDS011;1637;42.020;23.992;2023-06-14T03:26:48;19.63;;;13.00;;
3249;SDS011;1637;42.020;23.992;2023-06-14T03:29:15;13.33;;;9.67;;
3249;SDS011;1637;42.020;23.992;2023-06-14T03:31:55;11.67;;;7.80;;
3249;SDS011;1637;42.020;23.992;2023-06-14T03:34:23;11.13;;;6.80;;
3249;SDS011;1637;42.020;23.992;2023-06-14T03:36:49;8.13;;;6.40;;
3249;SDS011;1637;42.020;23.992;2023-06-14T03:39:18;7.60;;;6.43;;
3249;SDS011;1637;42.020;23.992;2023-06-14T03:41:45;10.20;;;6.60;;
3249;SDS011;1637;42.020;23.992;2023-06-14T03:44:13;24.90;;;7.20;;
3249;SDS011;1637;42.020;23.992;2023-06-14T03:46:42;18.63;;;6.63;;
3249;SDS011;1637;42.020;23.992;2023-06-14T03:49:08;12.70;;;6.87;;
3249;SDS011;1637;42.020;23.992;2023-06-14T03:51:36;14.43;;;8.30;;
3249;SDS011;1637;42.020;23.992;2023-06-14T03:54:03;11.20;;;7.20;;
3249;SDS011;1637;42.020;23.992;2023-06-14T03:56:31;8.57;;;6.20;;
3249;SDS011;1637;42.020;23.992;2023-06-14T03:58:58;11.50;;;6.30;;
3249;SDS011;1637;42.020;23.992;2023-06-14T04:01:25;8.67;;;6.43;;
3249;SDS011;1637;42.020;23.992;2023-06-14T04:03:54;23.17;;;8.70;;
3249;SDS011;1637;42.020;23.992;2023-06-14T04:06:22;21.40;;;6.30;;
3249;SDS011;1637;42.020;23.992;2023-06-14T04:08:50;11.20;;;6.90;;
3249;SDS011;1637;42.020;23.992;2023-06-14T04:11:17;9.57;;;7.47;;
3249;SDS011;1637;42.020;23.992;2023-06-14T04:13:46;9.67;;;8.03;;
3249;SDS011;1637;42.020;23.992;2023-06-14T04:16:13;10.13;;;6.17;;
3249;SDS011;1637;42.020;23.992;2023-06-14T04:18:40;11.07;;;7.93;;
3249;SDS011;1637;42.020;23.992;2023-06-14T04:21:06;10.00;;;6.80;;
3249;SDS011;1637;42.020;23.992;2023-06-14T04:23:33;9.60;;;7.70;;
3249;SDS011;1637;42.020;23.992;2023-06-14T04:26:00;10.47;;;7.23;;
3249;SDS011;1637;42.020;23.992;2023-06-14T04:28:27;10.40;;;7.53;;
3249;SDS011;1637;42.020;23.992;2023-06-14T04:30:56;15.63;;;7.27;;
3249;SDS011;1637;42.020;23.992;2023-06-14T04:33:26;8.90;;;7.10;;
3249;SDS011;1637;42.020;23.992;2023-06-14T04:35:53;8.40;;;7.13;;
3249;SDS011;1637;42.020;23.992;2023-06-14T04:38:21;15.57;;;7.13;;
3249;SDS011;1637;42.020;23.992;2023-06-14T04:40:50;15.30;;;7.20;;
3249;SDS011;1637;42.020;23.992;2023-06-14T04:43:18;16.50;;;8.20;;
3249;SDS011;1637;42.020;23.992;2023-06-14T04:45:52;15.17;;;6.37;;
3249;SDS011;1637;42.020;23.992;2023-06-14T04:48:22;19.20;;;7.70;;
3249;SDS011;1637;42.020;23.992;2023-06-14T04:50:49;16.97;;;9.90;;
3249;SDS011;1637;42.020;23.992;2023-06-14T04:53:18;10.30;;;7.63;;
3249;SDS011;1637;42.020;23.992;2023-06-14T04:56:26;13.73;;;7.47;;
3249;SDS011;1637;42.020;23.992;2023-06-14T04:58:55;22.50;;;12.87;;
3249;SDS011;1637;42.020;23.992;2023-06-14T05:01:22;23.07;;;16.53;;
3249;SDS011;1637;42.020;23.992;2023-06-14T05:03:49;13.27;;;10.20;;
3249;SDS011;1637;42.020;23.992;2023-06-14T05:06:16;33.00;;;11.40;;
3249;SDS011;1637;42.020;23.992;2023-06-14T05:08:43;16.00;;;9.43;;
3249;SDS011;1637;42.020;23.992;2023-06-14T05:11:10;14.83;;;7.30;;
3249;SDS011;1637;42.020;23.992;2023-06-14T05:13:38;18.27;;;8.00;;
3249;SDS011;1637;42.020;23.992;2023-06-14T05:16:06;18.33;;;8.13;;
3249;SDS011;1637;42.020;23.992;2023-06-14T05:18:33;16.77;;;7.67;;
3249;SDS011;1637;42.020;23.992;2023-06-14T05:21:00;13.40;;;8.17;;
3249;SDS011;1637;42.020;23.992;2023-06-14T05:23:27;12.60;;;8.43;;
3249;SDS011;1637;42.020;23.992;2023-06-14T05:25:54;16.73;;;8.10;;
3249;SDS011;1637;42.020;23.992;2023-06-14T05:28:21;13.50;;;8.23;;
3249;SDS011;1637;42.020;23.992;2023-06-14T05:30:50;13.17;;;8.83;;
3249;SDS011;1637;42.020;23.992;2023-06-14T05:33:17;12.23;;;8.53;;
3249;SDS011;1637;42.020;23.992;2023-06-14T05:35:43;13.67;;;8.00;;
3249;SDS011;1637;42.020;23.992;2023-06-14T05:38:10;8.97;;;7.07;;
3249;SDS011;1637;42.020;23.992;2023-06-14T05:40:37;12.20;;;7.80;;
3249;SDS011;1637;42.020;23.992;2023-06-14T05:43:04;13.00;;;7.50;;
3249;SDS011;1637;42.020;23.992;2023-06-14T05:45:31;20.63;;;9.30;;
3249;SDS011;1637;42.020;23.992;2023-06-14T05:48:00;19.17;;;11.77;;
3249;SDS011;1637;42.020;23.992;2023-06-14T05:50:26;15.23;;;12.23;;
3249;SDS011;1637;42.020;23.992;2023-06-14T05:52:53;30.33;;;16.60;;
3249;SDS011;1637;42.020;23.992;2023-06-14T05:55:20;19.00;;;14.10;;
3249;SDS011;1637;42.020;23.992;2023-06-14T05:57:47;22.07;;;17.83;;
3249;SDS011;1637;42.020;23.992;2023-06-14T06:00:14;15.63;;;9.30;;
3249;SDS011;1637;42.020;23.992;2023-06-14T06:02:42;18.20;;;10.67;;
3249;SDS011;1637;42.020;23.992;2023-06-14T06:05:11;8.87;;;7.20;;
3249;SDS011;1637;42.020;23.992;2023-06-14T06:07:39;12.50;;;11.30;;
3249;SDS011;1637;42.020;23.992;2023-06-14T06:10:06;12.80;;;10.70;;
3249;SDS011;1637;42.020;23.992;2023-06-14T06:12:33;8.83;;;7.47;;
3249;SDS011;1637;42.020;23.992;2023-06-14T06:15:00;11.00;;;7.73;;
3249;SDS011;1637;42.020;23.992;2023-06-14T06:17:28;11.03;;;6.93;;
3249;SDS011;1637;42.020;23.992;2023-06-14T06:19:54;9.50;;;7.30;;
3249;SDS011;1637;42.020;23.992;2023-06-14T06:22:23;8.90;;;6.97;;
3249;SDS011;1637;42.020;23.992;2023-06-14T06:24:50;15.50;;;8.37;;
3249;SDS011;1637;42.020;23.992;2023-06-14T06:27:16;13.13;;;9.17;;
3249;SDS011;1637;42.020;23.992;2023-06-14T06:29:45;7.17;;;6.47;;
3249;SDS011;1637;42.020;23.992;2023-06-14T06:32:13;14.53;;;7.23;;
3249;SDS011;1637;42.020;23.992;2023-06-14T06:34:40;14.33;;;6.07;;
3249;SDS011;1637;42.020;23.992;2023-06-14T06:37:07;7.80;;;6.47;;
3249;SDS011;1637;42.020;23.992;2023-06-14T06:39:35;14.10;;;5.67;;
3249;SDS011;1637;42.020;23.992;2023-06-14T06:42:02;16.83;;;6.67;;
3249;SDS011;1637;42.020;23.992;2023-06-14T06:44:30;13.90;;;8.43;;
3249;SDS011;1637;42.020;23.992;2023-06-14T06:46:57;6.07;;;5.57;;
3249;SDS011;1637;42.020;23.992;2023-06-14T06:49:24;6.33;;;5.60;;
3249;SDS011;1637;42.020;23.992;2023-06-14T06:52:00;7.40;;;5.13;;
3249;SDS011;1637;42.020;23.992;2023-06-14T06:54:28;5.93;;;5.43;;
3249;SDS011;1637;42.020;23.992;2023-06-14T06:56:56;11.13;;;6.07;;
3249;SDS011;1637;42.020;23.992;2023-06-14T06:59:23;11.07;;;8.43;;
3249;SDS011;1637;42.020;23.992;2023-06-14T07:01:50;8.20;;;6.40;;
3249;SDS011;1637;42.020;23.992;2023-06-14T07:04:17;7.67;;;6.90;;
3249;SDS011;1637;42.020;23.992;2023-06-14T07:06:45;11.57;;;7.60;;
3249;SDS011;1637;42.020;23.992;2023-06-14T07:09:13;7.17;;;5.30;;
3249;SDS011;1637;42.020;23.992;2023-06-14T07:11:43;6.90;;;6.20;;
3249;SDS011;1637;42.020;23.992;2023-06-14T07:14:11;11.10;;;8.03;;
3249;SDS011;1637;42.020;23.992;2023-06-14T07:16:38;7.63;;;6.03;;
3249;SDS011;1637;42.020;23.992;2023-06-14T07:19:06;10.17;;;8.50;;
3249;SDS011;1637;42.020;23.992;2023-06-14T07:21:34;16.47;;;9.80;;
3249;SDS011;1637;42.020;23.992;2023-06-14T07:24:02;6.40;;;5.80;;
3249;SDS011;1637;42.020;23.992;2023-06-14T07:26:30;7.93;;;6.23;;
3249;SDS011;1637;42.020;23.992;2023-06-14T07:28:56;11.37;;;7.37;;
3249;SDS011;1637;42.020;23.992;2023-06-14T07:31:25;9.47;;;5.80;;
3249;SDS011;1637;42.020;23.992;2023-06-14T07:33:52;14.00;;;6.47;;
3249;SDS011;1637;42.020;23.992;2023-06-14T07:36:19;7.63;;;4.60;;
3249;SDS011;1637;42.020;23.992;2023-06-14T07:38:46;10.37;;;4.77;;
3249;SDS011;1637;42.020;23.992;2023-06-14T07:41:13;6.33;;;5.73;;
3249;SDS011;1637;42.020;23.992;2023-06-14T07:43:39;5.37;;;4.87;;
3249;SDS011;1637;42.020;23.992;2023-06-14T07:46:06;8.20;;;6.23;;
3249;SDS011;1637;42.020;23.992;2023-06-14T07:48:35;6.50;;;5.80;;
3249;SDS011;1637;42.020;23.992;2023-06-14T07:51:02;5.90;;;5.40;;
3249;SDS011;1637;42.020;23.992;2023-06-14T07:53:29;6.67;;;5.87;;
3249;SDS011;1637;42.020;23.992;2023-06-14T07:55:56;24.63;;;13.23;;
3249;SDS011;1637;42.020;23.992;2023-06-14T07:58:23;20.20;;;12.07;;
3249;SDS011;1637;42.020;23.992;2023-06-14T08:00:50;13.53;;;12.33;;
3249;SDS011;1637;42.020;23.992;2023-06-14T08:03:17;9.10;;;7.47;;
3249;SDS011;1637;42.020;23.992;2023-06-14T08:05:46;10.07;;;9.07;;
3249;SDS011;1637;42.020;23.992;2023-06-14T08:08:12;15.73;;;13.50;;
3249;SDS011;1637;42.020;23.992;2023-06-14T08:10:39;13.00;;;10.80;;
3249;SDS011;1637;42.020;23.992;2023-06-14T08:13:06;5.30;;;4.80;;
3249;SDS011;1637;42.020;23.992;2023-06-14T08:15:34;4.93;;;4.57;;
3249;SDS011;1637;42.020;23.992;2023-06-14T08:18:01;12.43;;;7.93;;
3249;SDS011;1637;42.020;23.992;2023-06-14T08:20:28;8.70;;;7.37;;
3249;SDS011;1637;42.020;23.992;2023-06-14T08:22:57;15.17;;;6.07;;
3249;SDS011;1637;42.020;23.992;2023-06-14T08:25:24;14.10;;;7.93;;
3249;SDS011;1637;42.020;23.992;2023-06-14T08:27:52;10.43;;;9.47;;
3249;SDS011;1637;42.020;23.992;2023-06-14T08:30:19;8.73;;;5.60;;
3249;SDS011;1637;42.020;23.992;2023-06-14T08:32:45;5.23;;;4.73;;
3249;SDS011;1637;42.020;23.992;2023-06-14T08:35:12;12.40;;;8.67;;
3249;SDS011;1637;42.020;23.992;2023-06-14T08:37:41;12.57;;;8.77;;
3249;SDS011;1637;42.020;23.992;2023-06-14T08:40:12;8.50;;;5.47;;
3249;SDS011;1637;42.020;23.992;2023-06-14T08:42:45;8.10;;;5.20;;
3249;SDS011;1637;42.020;23.992;2023-06-14T08:45:14;5.40;;;4.90;;
3249;SDS011;1637;42.020;23.992;2023-06-14T08:47:41;7.80;;;5.57;;
3249;SDS011;1637;42.020;23.992;2023-06-14T08:50:08;6.83;;;4.40;;
3249;SDS011;1637;42.020;23.992;2023-06-14T08:52:37;10.30;;;5.30;;
3249;SDS011;1637;42.020;23.992;2023-06-14T08:55:12;5.80;;;4.20;;
3249;SDS011;1637;42.020;23.992;2023-06-14T08:57:39;11.13;;;5.30;;
3249;SDS011;1637;42.020;23.992;2023-06-14T09:00:07;14.70;;;4.00;;
3249;SDS011;1637;42.020;23.992;2023-06-14T09:02:38;5.20;;;4.70;;
3249;SDS011;1637;42.020;23.992;2023-06-14T09:05:08;6.97;;;4.47;;
3249;SDS011;1637;42.020;23.992;2023-06-14T09:07:36;8.30;;;5.60;;
3249;SDS011;1637;42.020;23.992;2023-06-14T09:10:07;14.03;;;4.30;;
3249;SDS011;1637;42.020;23.992;2023-06-14T09:12:36;9.60;;;7.13;;
3249;SDS011;1637;42.020;23.992;2023-06-14T09:15:05;5.00;;;4.57;;
3249;SDS011;1637;42.020;23.992;2023-06-14T09:17:33;5.87;;;5.27;;
3249;SDS011;1637;42.020;23.992;2023-06-14T09:20:01;6.23;;;4.70;;
3249;SDS011;1637;42.020;23.992;2023-06-14T09:22:31;11.00;;;4.93;;
3249;SDS011;1637;42.020;23.992;2023-06-14T09:24:59;5.87;;;3.70;;
3249;SDS011;1637;42.020;23.992;2023-06-14T09:27:26;7.10;;;5.50;;
3249;SDS011;1637;42.020;23.992;2023-06-14T09:29:54;5.97;;;4.60;;
3249;SDS011;1637;42.020;23.992;2023-06-14T09:32:21;11.10;;;6.33;;
3249;SDS011;1637;42.020;23.992;2023-06-14T09:34:48;6.67;;;4.20;;
3249;SDS011;1637;42.020;23.992;2023-06-14T09:37:26;7.77;;;5.60;;
3249;SDS011;1637;42.020;23.992;2023-06-14T09:39:54;7.07;;;4.30;;
3249;SDS011;1637;42.020;23.992;2023-06-14T09:42:21;7.37;;;4.90;;
3249;SDS011;1637;42.020;23.992;2023-06-14T09:44:51;7.60;;;6.90;;
3249;SDS011;1637;42.020;23.992;2023-06-14T09:47:21;15.20;;;13.60;;
3249;SDS011;1637;42.020;23.992;2023-06-14T09:49:48;9.90;;;8.23;;
3249;SDS011;1637;42.020;23.992;2023-06-14T09:52:16;24.17;;;10.20;;
3249;SDS011;1637;42.020;23.992;2023-06-14T09:54:44;7.50;;;5.77;;
3249;SDS011;1637;42.020;23.992;2023-06-14T09:57:14;11.80;;;6.27;;
3249;SDS011;1637;42.020;23.992;2023-06-14T09:59:42;4.90;;;4.40;;
3249;SDS011;1637;42.020;23.992;2023-06-14T10:02:11;16.43;;;14.70;;
3249;SDS011;1637;42.020;23.992;2023-06-14T10:04:46;9.23;;;7.67;;
3249;SDS011;1637;42.020;23.992;2023-06-14T10:07:19;5.70;;;4.77;;
3249;SDS011;1637;42.020;23.992;2023-06-14T10:09:47;7.97;;;7.17;;
3249;SDS011;1637;42.020;23.992;2023-06-14T10:12:16;5.00;;;4.60;;
3249;SDS011;1637;42.020;23.992;2023-06-14T10:14:46;6.30;;;4.90;;
3249;SDS011;1637;42.020;23.992;2023-06-14T10:17:17;7.60;;;5.17;;
3249;SDS011;1637;42.020;23.992;2023-06-14T10:19:54;5.20;;;4.37;;
3249;SDS011;1637;42.020;23.992;2023-06-14T10:22:26;4.60;;;4.20;;
3249;SDS011;1637;42.020;23.992;2023-06-14T10:24:59;11.93;;;6.03;;
3249;SDS011;1637;42.020;23.992;2023-06-14T10:27:26;4.60;;;4.23;;
3249;SDS011;1637;42.020;23.992;2023-06-14T10:30:02;8.70;;;5.10;;
3249;SDS011;1637;42.020;23.992;2023-06-14T10:32:31;7.37;;;4.57;;
3249;SDS011;1637;42.020;23.992;2023-06-14T10:35:00;6.47;;;5.70;;
3249;SDS011;1637;42.020;23.992;2023-06-14T10:37:28;7.70;;;7.00;;
3249;SDS011;1637;42.020;23.992;2023-06-14T10:39:55;5.80;;;5.17;;
3249;SDS011;1637;42.020;23.992;2023-06-14T10:42:23;5.83;;;5.13;;
3249;SDS011;1637;42.020;23.992;2023-06-14T10:44:54;5.90;;;5.13;;
3249;SDS011;1637;42.020;23.992;2023-06-14T10:47:23;6.20;;;5.10;;
3249;SDS011;1637;42.020;23.992;2023-06-14T10:49:52;6.50;;;5.23;;
3249;SDS011;1637;42.020;23.992;2023-06-14T10:52:22;8.57;;;4.87;;
3249;SDS011;1637;42.020;23.992;2023-06-14T10:57:40;5.03;;;4.57;;
3249;SDS011;1637;42.020;23.992;2023-06-14T11:00:08;7.40;;;4.77;;
3249;SDS011;1637;42.020;23.992;2023-06-14T11:05:55;7.83;;;4.57;;
3249;SDS011;1637;42.020;23.992;2023-06-14T11:11:39;4.50;;;4.10;;
3249;SDS011;1637;42.020;23.992;2023-06-14T11:14:09;9.87;;;4.50;;
3249;SDS011;1637;42.020;23.992;2023-06-14T11:16:36;5.33;;;4.83;;
3249;SDS011;1637;42.020;23.992;2023-06-14T11:19:03;7.77;;;5.97;;
3249;SDS011;1637;42.020;23.992;2023-06-14T11:21:31;5.23;;;4.63;;
3249;SDS011;1637;42.020;23.992;2023-06-14T11:23:58;6.30;;;4.87;;
3249;SDS011;1637;42.020;23.992;2023-06-14T11:26:25;5.77;;;4.93;;
3249;SDS011;1637;42.020;23.992;2023-06-14T11:28:58;10.03;;;3.97;;
3249;SDS011;1637;42.020;23.992;2023-06-14T11:31:26;6.13;;;4.50;;
3249;SDS011;1637;42.020;23.992;2023-06-14T11:33:54;15.33;;;12.13;;
3249;SDS011;1637;42.020;23.992;2023-06-14T11:36:22;8.70;;;5.37;;
3249;SDS011;1637;42.020;23.992;2023-06-14T11:38:49;5.00;;;4.60;;
3249;SDS011;1637;42.020;23.992;2023-06-14T11:41:15;5.03;;;4.63;;
3249;SDS011;1637;42.020;23.992;2023-06-14T11:43:42;4.87;;;4.47;;
3249;SDS011;1637;42.020;23.992;2023-06-14T11:46:14;5.00;;;4.33;;
3249;SDS011;1637;42.020;23.992;2023-06-14T11:48:42;4.90;;;3.90;;
3249;SDS011;1637;42.020;23.992;2023-06-14T11:51:10;4.00;;;3.63;;
3249;SDS011;1637;42.020;23.992;2023-06-14T11:53:37;8.70;;;3.90;;
3249;SDS011;1637;42.020;23.992;2023-06-14T11:56:04;4.93;;;4.50;;
3249;SDS011;1637;42.020;23.992;2023-06-14T11:58:32;4.90;;;4.50;;
3249;SDS011;1637;42.020;23.992;2023-06-14T12:00:58;5.30;;;4.57;;
3249;SDS011;1637;42.020;23.992;2023-06-14T12:03:27;4.90;;;4.50;;
3249;SDS011;1637;42.020;23.992;2023-06-14T12:06:04;11.87;;;4.17;;
3249;SDS011;1637;42.020;23.992;2023-06-14T12:08:32;5.17;;;4.67;;
3249;SDS011;1637;42.020;23.992;2023-06-14T12:11:04;5.90;;;4.63;;
3249;SDS011;1637;42.020;23.992;2023-06-14T12:13:31;6.90;;;4.97;;
3249;SDS011;1637;42.020;23.992;2023-06-14T12:15:58;5.43;;;4.10;;
3249;SDS011;1637;42.020;23.992;2023-06-14T12:18:32;5.53;;;4.30;;
3249;SDS011;1637;42.020;23.992;2023-06-14T12:21:00;4.77;;;4.00;;
3249;SDS011;1637;42.020;23.992;2023-06-14T12:23:38;5.20;;;4.03;;
3249;SDS011;1637;42.020;23.992;2023-06-14T12:26:06;4.23;;;3.93;;
3249;SDS011;1637;42.020;23.992;2023-06-14T12:28:32;5.70;;;4.93;;
3249;SDS011;1637;42.020;23.992;2023-06-14T12:30:59;8.90;;;5.07;;
3249;SDS011;1637;42.020;23.992;2023-06-14T12:33:26;4.73;;;4.33;;
3249;SDS011;1637;42.020;23.992;2023-06-14T12:35:56;5.27;;;4.60;;
3249;SDS011;1637;42.020;23.992;2023-06-14T12:38:23;5.07;;;4.57;;
3249;SDS011;1637;42.020;23.992;2023-06-14T12:40:50;7.00;;;4.80;;
3249;SDS011;1637;42.020;23.992;2023-06-14T12:43:17;10.20;;;4.87;;
3249;SDS011;1637;42.020;23.992;2023-06-14T12:45:44;5.80;;;4.40;;
3249;SDS011;1637;42.020;23.992;2023-06-14T12:48:11;6.13;;;4.70;;
3249;SDS011;1637;42.020;23.992;2023-06-14T12:50:38;4.57;;;4.17;;
3249;SDS011;1637;42.020;23.992;2023-06-14T12:53:06;5.73;;;4.90;;
3249;SDS011;1637;42.020;23.992;2023-06-14T12:55:32;6.70;;;4.67;;
3249;SDS011;1637;42.020;23.992;2023-06-14T12:57:59;4.50;;;4.10;;
3249;SDS011;1637;42.020;23.992;2023-06-14T13:00:26;5.90;;;5.40;;
3249;SDS011;1637;42.020;23.992;2023-06-14T13:02:55;8.83;;;4.50;;
3249;SDS011;1637;42.020;23.992;2023-06-14T13:05:21;7.80;;;4.40;;
3249;SDS011;1637;42.020;23.992;2023-06-14T13:07:48;5.10;;;4.60;;
3249;SDS011;1637;42.020;23.992;2023-06-14T13:10:17;7.20;;;3.70;;
3249;SDS011;1637;42.020;23.992;2023-06-14T13:12:44;5.10;;;4.00;;
3249;SDS011;1637;42.020;23.992;2023-06-14T13:15:11;4.53;;;4.23;;
3249;SDS011;1637;42.020;23.992;2023-06-14T13:17:38;9.10;;;5.00;;
3249;SDS011;1637;42.020;23.992;2023-06-14T13:20:05;5.13;;;4.63;;
3249;SDS011;1637;42.020;23.992;2023-06-14T13:22:33;6.83;;;4.23;;
3249;SDS011;1637;42.020;23.992;2023-06-14T13:24:59;4.80;;;3.73;;
3249;SDS011;1637;42.020;23.992;2023-06-14T13:27:28;4.63;;;4.23;;
3249;SDS011;1637;42.020;23.992;2023-06-14T13:29:54;5.90;;;4.07;;
3249;SDS011;1637;42.020;23.992;2023-06-14T13:32:21;16.33;;;4.90;;
3249;SDS011;1637;42.020;23.992;2023-06-14T13:34:49;9.60;;;5.20;;
3249;SDS011;1637;42.020;23.992;2023-06-14T13:37:16;12.80;;;5.50;;
3249;SDS011;1637;42.020;23.992;2023-06-14T13:39:42;5.73;;;4.40;;
3249;SDS011;1637;42.020;23.992;2023-06-14T13:42:09;4.60;;;3.80;;
3249;SDS011;1637;42.020;23.992;2023-06-14T13:44:38;4.50;;;4.10;;
3249;SDS011;1637;42.020;23.992;2023-06-14T13:47:05;4.43;;;3.93;;
3249;SDS011;1637;42.020;23.992;2023-06-14T13:49:32;6.07;;;4.10;;
3249;SDS011;1637;42.020;23.992;2023-06-14T13:52:00;4.37;;;3.97;;
3249;SDS011;1637;42.020;23.992;2023-06-14T13:54:27;5.60;;;4.20;;
3249;SDS011;1637;42.020;23.992;2023-06-14T13:56:54;4.33;;;3.80;;
3249;SDS011;1637;42.020;23.992;2023-06-14T13:59:21;5.90;;;3.87;;
3249;SDS011;1637;42.020;23.992;2023-06-14T14:01:49;8.07;;;4.60;;
3249;SDS011;1637;42.020;23.992;2023-06-14T14:04:16;3.90;;;3.60;;
3249;SDS011;1637;42.020;23.992;2023-06-14T14:06:43;3.20;;;2.90;;
3249;SDS011;1637;42.020;23.992;2023-06-14T14:09:10;2.70;;;2.50;;
3249;SDS011;1637;42.020;23.992;2023-06-14T14:11:37;2.93;;;2.60;;
3249;SDS011;1637;42.020;23.992;2023-06-14T14:14:06;3.10;;;2.20;;
3249;SDS011;1637;42.020;23.992;2023-06-14T14:16:33;2.60;;;2.40;;
3249;SDS011;1637;42.020;23.992;2023-06-14T14:19:01;4.13;;;2.93;;
3249;SDS011;1637;42.020;23.992;2023-06-14T14:21:28;3.70;;;3.40;;
3249;SDS011;1637;42.020;23.992;2023-06-14T14:23:55;3.30;;;3.00;;
3249;SDS011;1637;42.020;23.992;2023-06-14T14:26:22;4.17;;;2.90;;
3249;SDS011;1637;42.020;23.992;2023-06-14T14:28:49;2.40;;;2.20;;
3249;SDS011;1637;42.020;23.992;2023-06-14T14:31:16;4.53;;;2.87;;
3249;SDS011;1637;42.020;23.992;2023-06-14T14:33:43;9.03;;;2.80;;
3249;SDS011;1637;42.020;23.992;2023-06-14T14:36:11;4.67;;;3.57;;
3249;SDS011;1637;42.020;23.992;2023-06-14T14:38:38;4.33;;;2.43;;
3249;SDS011;1637;42.020;23.992;2023-06-14T14:41:05;4.87;;;2.80;;
3249;SDS011;1637;42.020;23.992;2023-06-14T14:43:32;2.60;;;2.40;;
3249;SDS011;1637;42.020;23.992;2023-06-14T14:45:59;2.50;;;2.30;;
3249;SDS011;1637;42.020;23.992;2023-06-14T14:48:26;2.00;;;1.90;;
3249;SDS011;1637;42.020;23.992;2023-06-14T14:50:52;3.93;;;1.80;;
3249;SDS011;1637;42.020;23.992;2023-06-14T14:53:21;3.97;;;2.40;;
3249;SDS011;1637;42.020;23.992;2023-06-14T14:55:48;3.20;;;2.73;;
3249;SDS011;1637;42.020;23.992;2023-06-14T14:58:15;12.27;;;2.50;;
3249;SDS011;1637;42.020;23.992;2023-06-14T15:00:43;2.87;;;2.67;;
3249;SDS011;1637;42.020;23.992;2023-06-14T15:03:10;6.33;;;2.97;;
3249;SDS011;1637;42.020;23.992;2023-06-14T15:05:37;2.57;;;2.37;;
3249;SDS011;1637;42.020;23.992;2023-06-14T15:08:04;5.10;;;2.40;;
3249;SDS011;1637;42.020;23.992;2023-06-14T15:10:38;2.30;;;2.10;;